createdAt,value
2023-06-06T00:02:43.735Z,101443.13
2023-06-06T00:05:30.811Z,101444.06
2023-06-06T00:08:21.229Z,101436.19
2023-06-06T00:11:07.721Z,101440.78
2023-06-06T00:13:54.466Z,101439.47
2023-06-06T00:16:41.317Z,101437.50
2023-06-06T00:19:29.596Z,101434.13
2023-06-06T00:22:16.764Z,101440.03
2023-06-06T00:25:04.986Z,101429.53
2023-06-06T00:27:51.736Z,101431.50
2023-06-06T00:30:38.445Z,101436.41
2023-06-06T00:33:25.335Z,101423.81
2023-06-06T00:36:13.843Z,101423.94
2023-06-06T00:39:00.304Z,101432.41
2023-06-06T00:41:48.298Z,101427.19
2023-06-06T00:44:35.337Z,101421.19
2023-06-06T00:47:22.322Z,101426.59
2023-06-06T00:50:13.628Z,101424.03
2023-06-06T00:53:02.014Z,101424.97
2023-06-06T00:55:49.023Z,101422.81
2023-06-06T00:58:38.149Z,101427.97
2023-06-06T01:01:26.574Z,101425.53
2023-06-06T01:04:13.838Z,101424.50
2023-06-06T01:07:00.313Z,101424.03
2023-06-06T01:09:49.270Z,101423.91
2023-06-06T01:12:46.089Z,101425.25
2023-06-06T01:15:38.869Z,101430.06
2023-06-06T01:18:26.543Z,101424.50
2023-06-06T01:21:13.232Z,101422.13
2023-06-06T01:24:01.281Z,101426.59
2023-06-06T01:26:48.934Z,101424.34
2023-06-06T01:29:38.354Z,101419.75
2023-06-06T01:32:33.390Z,101424.72
2023-06-06T01:35:27.163Z,101423.09
2023-06-06T01:38:18.381Z,101418.94
2023-06-06T01:41:07.364Z,101416.97
2023-06-06T01:43:56.615Z,101412.22
2023-06-06T01:46:43.423Z,101421.72
2023-06-06T01:49:32.130Z,101417.31
2023-06-06T01:52:19.300Z,101419.34
2023-06-06T01:55:07.693Z,101422.94
2023-06-06T01:57:57.523Z,101424.72
2023-06-06T02:00:44.239Z,101421.03
2023-06-06T02:03:31.042Z,101425.44
2023-06-06T02:06:17.961Z,101417.31
2023-06-06T02:09:04.882Z,101422.53
2023-06-06T02:11:55.745Z,101421.78
2023-06-06T02:14:44.114Z,101419.88
2023-06-06T02:17:31.018Z,101422.66
2023-06-06T02:20:17.551Z,101414.47
2023-06-06T02:23:04.332Z,101422.53
2023-06-06T02:25:52.071Z,101419.81
2023-06-06T02:28:39.070Z,101408.44
2023-06-06T02:31:27.976Z,101407.59
2023-06-06T02:34:14.528Z,101410.06
2023-06-06T02:37:07.887Z,101404.50
2023-06-06T02:39:54.937Z,101409.78
2023-06-06T02:42:42.209Z,101411.53
2023-06-06T02:45:29.869Z,101413.25
2023-06-06T02:48:18.148Z,101414.06
2023-06-06T02:51:05.675Z,101405.94
2023-06-06T02:53:52.767Z,101409.66
2023-06-06T02:56:39.167Z,101415.06
2023-06-06T02:59:26.201Z,101410.66
2023-06-06T03:02:12.816Z,101409.53
2023-06-06T03:05:01.268Z,101407.81
2023-06-06T03:07:48.624Z,101404.22
2023-06-06T03:10:35.481Z,101406.19
2023-06-06T03:13:22.662Z,101403.41
2023-06-06T03:16:10.469Z,101402.59
2023-06-06T03:19:00.604Z,101401.66
2023-06-06T03:21:48.973Z,101400.75
2023-06-06T03:24:37.062Z,101399.00
2023-06-06T03:27:27.876Z,101405.19
2023-06-06T03:30:16.575Z,101407.00
2023-06-06T03:33:04.821Z,101398.38
2023-06-06T03:35:51.701Z,101396.88
2023-06-06T03:38:40.043Z,101397.56
2023-06-06T03:41:26.947Z,101407.53
2023-06-06T03:44:14.236Z,101400.34
2023-06-06T03:47:04.878Z,101405.63
2023-06-06T03:49:51.408Z,101403.19
2023-06-06T03:52:38.821Z,101396.00
2023-06-06T03:55:27.332Z,101394.22
2023-06-06T03:58:15.063Z,101394.91
2023-06-06T04:01:02.580Z,101402.19
2023-06-06T04:03:49.160Z,101406.66
2023-06-06T04:06:37.111Z,101398.59
2023-06-06T04:09:27.162Z,101396.06
2023-06-06T04:12:15.614Z,101392.28
2023-06-06T04:15:03.382Z,101385.84
2023-06-06T04:17:50.284Z,101389.63
2023-06-06T04:20:37.079Z,101390.66
2023-06-06T04:23:23.865Z,101387.44
2023-06-06T04:26:11.566Z,101390.88
2023-06-06T04:29:01.378Z,101387.31
2023-06-06T04:31:48.927Z,101385.97
2023-06-06T04:34:36.976Z,101385.91
2023-06-06T04:37:25.196Z,101392.69
2023-06-06T04:40:12.707Z,101385.84
2023-06-06T04:43:02.398Z,101392.06
2023-06-06T04:45:52.171Z,101398.34
2023-06-06T04:48:39.584Z,101404.63
2023-06-06T04:51:30.753Z,101394.44
2023-06-06T04:54:17.271Z,101391.50
2023-06-06T04:57:04.537Z,101385.41
2023-06-06T04:59:52.588Z,101395.66
2023-06-06T05:02:41.405Z,101388.22
2023-06-06T05:05:29.535Z,101387.94
2023-06-06T05:08:16.325Z,101391.28
2023-06-06T05:11:03.153Z,101388.31
2023-06-06T05:13:49.942Z,101381.31
2023-06-06T05:16:37.092Z,101386.56
2023-06-06T05:19:25.108Z,101383.44
2023-06-06T05:22:11.961Z,101385.56
2023-06-06T05:24:58.733Z,101382.59
2023-06-06T05:27:47.549Z,101385.72
2023-06-06T05:30:34.033Z,101387.88
2023-06-06T05:33:21.180Z,101391.47
2023-06-06T05:36:09.249Z,101389.78
2023-06-06T05:38:55.990Z,101386.66
2023-06-06T05:41:42.869Z,101385.41
2023-06-06T05:44:35.149Z,101391.63
2023-06-06T05:47:30.301Z,101395.28
2023-06-06T05:50:20.730Z,101388.69
2023-06-06T05:53:12.492Z,101410.94
2023-06-06T05:56:07.474Z,101400.28
2023-06-06T05:58:55.058Z,101390.00
2023-06-06T06:01:42.524Z,101393.59
2023-06-06T06:04:33.631Z,101395.00
2023-06-06T06:07:21.131Z,101389.31
2023-06-06T06:10:09.793Z,101387.84
2023-06-06T06:12:56.852Z,101406.69
2023-06-06T06:15:43.325Z,101403.19
2023-06-06T06:18:30.131Z,101396.03
2023-06-06T06:21:19.019Z,101403.44
2023-06-06T06:24:07.352Z,101404.09
2023-06-06T06:26:55.500Z,101405.63
2023-06-06T06:29:42.117Z,101410.50
2023-06-06T06:32:29.194Z,101411.06
2023-06-06T06:35:16.195Z,101408.50
2023-06-06T06:38:02.659Z,101412.66
2023-06-06T06:40:49.669Z,101416.41
2023-06-06T06:43:37.865Z,101411.03
2023-06-06T06:46:32.371Z,101412.88
2023-06-06T06:49:19.361Z,101414.91
2023-06-06T06:52:06.605Z,101411.84
2023-06-06T06:54:55.838Z,101411.72
2023-06-06T06:57:46.248Z,101414.66
2023-06-06T07:00:35.175Z,101425.78
2023-06-06T07:03:22.938Z,101409.75
2023-06-06T07:06:09.663Z,101419.03
2023-06-06T07:08:56.457Z,101419.88
2023-06-06T07:11:43.137Z,101418.97
2023-06-06T07:14:30.633Z,101410.94
2023-06-06T07:17:18.687Z,101408.53
2023-06-06T07:20:09.427Z,101413.22
2023-06-06T07:22:58.025Z,101412.09
2023-06-06T07:25:44.849Z,101414.59
2023-06-06T07:28:32.195Z,101409.72
2023-06-06T07:31:19.146Z,101409.50
2023-06-06T07:34:07.382Z,101417.22
2023-06-06T07:36:53.965Z,101414.56
2023-06-06T07:39:43.794Z,101413.84
2023-06-06T07:42:30.497Z,101416.25
2023-06-06T07:45:17.321Z,101415.41
2023-06-06T07:48:04.572Z,101411.59
2023-06-06T07:50:54.208Z,101415.75
2023-06-06T07:53:40.891Z,101416.63
2023-06-06T07:56:28.688Z,101417.84
2023-06-06T07:59:15.576Z,101416.16
2023-06-06T08:02:04.498Z,101419.00
2023-06-06T08:04:54.079Z,101412.09
2023-06-06T08:07:44.035Z,101420.59
2023-06-06T08:10:30.834Z,101418.88
2023-06-06T08:13:17.600Z,101416.88
2023-06-06T08:16:04.640Z,101418.63
2023-06-06T08:18:51.345Z,101412.38
2023-06-06T08:21:38.486Z,101420.75
2023-06-06T08:24:26.800Z,101417.78
2023-06-06T08:27:13.554Z,101420.88
2023-06-06T08:30:01.038Z,101421.31
2023-06-06T08:32:47.658Z,101424.56
2023-06-06T08:35:34.511Z,101419.53
2023-06-06T08:38:21.148Z,101414.25
2023-06-06T08:41:11.187Z,101409.22
2023-06-06T08:44:01.556Z,101420.16
2023-06-06T08:46:59.517Z,101410.94
2023-06-06T08:49:46.533Z,101411.53
2023-06-06T08:52:35.801Z,101414.50
2023-06-06T08:55:23.627Z,101404.28
2023-06-06T08:58:12.877Z,101407.69
2023-06-06T09:01:00.416Z,101405.44
2023-06-06T09:03:47.882Z,101408.59
2023-06-06T09:06:35.900Z,101411.06
2023-06-06T09:09:22.598Z,101409.84
2023-06-06T09:12:10.665Z,101409.47
2023-06-06T09:14:58.949Z,101410.72
2023-06-06T09:17:47.983Z,101376.78
2023-06-06T09:20:36.161Z,101417.75
2023-06-06T09:23:23.037Z,101415.97
2023-06-06T09:26:19.652Z,101418.53
2023-06-06T09:29:09.995Z,101409.41
2023-06-06T09:32:01.787Z,101409.94
2023-06-06T09:34:49.563Z,101414.22
2023-06-06T09:37:36.539Z,101415.47
2023-06-06T09:40:23.857Z,101402.84
2023-06-06T09:43:11.668Z,101410.91
2023-06-06T09:45:59.837Z,101409.78
2023-06-06T09:48:59.905Z,101414.47
2023-06-06T09:51:47.173Z,101416.38
2023-06-06T09:54:34.937Z,101406.53
2023-06-06T09:57:23.139Z,101402.88
2023-06-06T10:00:13.922Z,101373.69
2023-06-06T10:03:02.513Z,101401.94
2023-06-06T10:05:52.873Z,101398.91
2023-06-06T10:08:40.349Z,101395.88
2023-06-06T10:11:27.860Z,101388.19
2023-06-06T10:14:16.735Z,101394.13
2023-06-06T10:17:03.533Z,101399.91
2023-06-06T10:19:50.067Z,101392.53
2023-06-06T10:22:39.050Z,101388.22
2023-06-06T10:25:25.826Z,101397.00
2023-06-06T10:28:18.972Z,101401.22
2023-06-06T10:31:12.825Z,101399.53
2023-06-06T10:34:04.940Z,101403.78
2023-06-06T10:36:51.475Z,101402.72
2023-06-06T10:39:39.850Z,101394.16
2023-06-06T10:42:37.961Z,101397.34
2023-06-06T10:45:46.415Z,101400.34
2023-06-06T10:48:40.193Z,101391.72
2023-06-06T10:51:34.158Z,101392.44
2023-06-06T10:54:22.466Z,101388.44
2023-06-06T10:57:17.705Z,101393.84
2023-06-06T11:00:04.966Z,101396.28
2023-06-06T11:02:51.900Z,101394.97
2023-06-06T11:06:06.046Z,101393.72
2023-06-06T11:09:00.953Z,101394.84
2023-06-06T11:11:47.397Z,101391.34
2023-06-06T11:14:58.740Z,101387.66
2023-06-06T11:17:48.018Z,101390.56
2023-06-06T11:20:41.421Z,101380.28
2023-06-06T11:23:40.504Z,101372.72
2023-06-06T11:26:27.982Z,101375.44
2023-06-06T11:29:14.555Z,101375.00
2023-06-06T11:32:02.379Z,101380.31
2023-06-06T11:34:51.976Z,101366.13
2023-06-06T11:37:39.210Z,101370.59
2023-06-06T11:40:27.584Z,101378.91
2023-06-06T11:43:14.509Z,101374.56
2023-06-06T11:46:05.172Z,101365.72
2023-06-06T11:49:01.562Z,101368.03
2023-06-06T11:51:56.725Z,101363.59
2023-06-06T11:54:54.250Z,101324.06
2023-06-06T11:57:42.257Z,101360.84
2023-06-06T12:00:29.653Z,101369.56
2023-06-06T12:03:17.116Z,101359.13
2023-06-06T12:06:07.212Z,101362.59
2023-06-06T12:08:53.998Z,101361.28
2023-06-06T12:11:53.294Z,101359.69
2023-06-06T12:14:41.631Z,101358.84
2023-06-06T12:17:30.259Z,101357.16
2023-06-06T12:20:24.732Z,101349.81
2023-06-06T12:23:12.752Z,101348.53
2023-06-06T12:25:59.636Z,101351.97
2023-06-06T12:28:57.560Z,101352.81
2023-06-06T12:31:47.084Z,101353.41
2023-06-06T12:34:49.454Z,101347.25
2023-06-06T12:37:38.491Z,101344.25
2023-06-06T12:40:31.990Z,101351.13
2023-06-06T12:43:18.535Z,101349.66
2023-06-06T12:46:05.463Z,101343.41
2023-06-06T12:48:52.144Z,101352.81
2023-06-06T12:51:40.881Z,101353.69
2023-06-06T12:54:27.810Z,101343.09
2023-06-06T12:57:16.587Z,101343.53
2023-06-06T13:00:03.069Z,101341.81
2023-06-06T13:02:50.936Z,101343.50
2023-06-06T13:05:37.919Z,101340.19
2023-06-06T13:08:37.255Z,101336.72
2023-06-06T13:11:25.326Z,101329.28
2023-06-06T13:14:14.755Z,101334.81
2023-06-06T13:17:12.471Z,101323.03
2023-06-06T13:19:59.467Z,101321.03
2023-06-06T13:22:46.358Z,101321.47
2023-06-06T13:25:33.807Z,101324.47
2023-06-06T13:28:20.481Z,101325.63
2023-06-06T13:31:08.448Z,101315.47
2023-06-06T13:33:55.174Z,101317.03
2023-06-06T13:36:42.003Z,101313.38
2023-06-06T13:39:28.848Z,101313.06
2023-06-06T13:42:15.816Z,101310.94
2023-06-06T13:45:02.301Z,101313.69
2023-06-06T13:47:50.963Z,101309.75
2023-06-06T13:50:37.967Z,101305.63
2023-06-06T13:53:24.589Z,101302.03
2023-06-06T13:56:11.656Z,101295.94
2023-06-06T13:58:58.367Z,101301.88
2023-06-06T14:01:48.176Z,101295.84
2023-06-06T14:04:38.684Z,101257.50
2023-06-06T14:07:25.663Z,101304.44
2023-06-06T14:10:12.426Z,101290.72
2023-06-06T14:13:00.157Z,101276.22
2023-06-06T14:15:46.576Z,101302.28
2023-06-06T14:18:33.731Z,101297.28
2023-06-06T14:21:29.724Z,101300.56
2023-06-06T14:24:16.704Z,101296.69
2023-06-06T14:27:03.607Z,101295.06
2023-06-06T14:29:52.735Z,101295.97
2023-06-06T14:32:41.842Z,101296.94
2023-06-06T14:35:28.863Z,101294.50
2023-06-06T14:38:17.033Z,101295.81
2023-06-06T14:41:03.875Z,101296.22
2023-06-06T14:43:57.075Z,101288.50
2023-06-06T14:46:44.098Z,101297.25
2023-06-06T14:49:31.058Z,101291.31
2023-06-06T14:52:17.784Z,101292.91
2023-06-06T14:55:06.500Z,101290.03
2023-06-06T14:57:53.820Z,101299.44
2023-06-06T15:00:40.541Z,101307.31
2023-06-06T15:03:27.620Z,101304.31
2023-06-06T15:06:14.351Z,101308.31
2023-06-06T15:09:01.411Z,101304.16
2023-06-06T15:11:51.971Z,101293.28
2023-06-06T15:14:41.177Z,101300.16
2023-06-06T15:17:28.141Z,101295.56
2023-06-06T15:20:15.527Z,101295.25
2023-06-06T15:23:03.748Z,101289.66
2023-06-06T15:25:50.312Z,101291.38
2023-06-06T15:28:38.696Z,101288.13
2023-06-06T15:31:28.545Z,101287.25
2023-06-06T15:34:15.475Z,101288.38
2023-06-06T15:37:02.084Z,101287.97
2023-06-06T15:39:49.246Z,101285.38
2023-06-06T15:42:36.331Z,101283.84
2023-06-06T15:45:24.311Z,101284.97
2023-06-06T15:48:11.221Z,101276.22
2023-06-06T15:50:57.974Z,101282.09
2023-06-06T15:53:44.717Z,101279.66
2023-06-06T15:56:31.481Z,101267.94
2023-06-06T15:59:18.484Z,101270.38
2023-06-06T16:02:07.929Z,101268.91
2023-06-06T16:04:55.234Z,101258.66
2023-06-06T16:07:42.289Z,101267.94
2023-06-06T16:10:29.012Z,101272.22
2023-06-06T16:13:15.818Z,101264.91
2023-06-06T16:16:02.698Z,101264.34
2023-06-06T16:18:50.977Z,101267.22
2023-06-06T16:21:38.671Z,101271.09
2023-06-06T16:24:25.997Z,101268.19
2023-06-06T16:27:12.541Z,101268.00
2023-06-06T16:29:59.480Z,101278.56
2023-06-06T16:32:47.002Z,101271.56
2023-06-06T16:35:36.057Z,101251.06
2023-06-06T16:38:22.892Z,101277.09
2023-06-06T16:41:09.561Z,101284.66
2023-06-06T16:43:56.280Z,101286.19
2023-06-06T16:46:43.206Z,101283.00
2023-06-06T16:49:29.810Z,101278.31
2023-06-06T16:52:18.694Z,101282.72
2023-06-06T16:55:06.286Z,101276.41
2023-06-06T16:57:54.034Z,101281.81
2023-06-06T17:00:43.225Z,101280.75
2023-06-06T17:03:31.724Z,101273.88
2023-06-06T17:06:18.562Z,101284.34
2023-06-06T17:09:07.033Z,101279.34
2023-06-06T17:11:53.601Z,101277.75
2023-06-06T17:14:40.630Z,101281.06
2023-06-06T17:17:27.345Z,101282.06
2023-06-06T17:20:14.826Z,101285.63
2023-06-06T17:23:01.487Z,101278.88
2023-06-06T17:25:51.612Z,101283.81
2023-06-06T17:28:38.586Z,101282.97
2023-06-06T17:31:25.343Z,101282.09
2023-06-06T17:34:12.307Z,101290.72
2023-06-06T17:36:59.445Z,101283.56
2023-06-06T17:39:45.990Z,101284.94
2023-06-06T17:42:34.109Z,101277.06
2023-06-06T17:45:21.696Z,101284.69
2023-06-06T17:48:08.486Z,101290.34
2023-06-06T17:50:55.417Z,101283.97
2023-06-06T17:53:41.854Z,101277.94
2023-06-06T17:56:31.942Z,101278.03
2023-06-06T17:59:20.040Z,101284.66
2023-06-06T18:02:06.779Z,101282.22
2023-06-06T18:04:53.979Z,101286.38
2023-06-06T18:07:41.432Z,101293.13
2023-06-06T18:10:27.912Z,101300.25
2023-06-06T18:13:14.660Z,101303.19
2023-06-06T18:16:03.378Z,101300.84
2023-06-06T18:18:51.259Z,101307.44
2023-06-06T18:21:40.174Z,101313.31
2023-06-06T18:24:27.149Z,101315.72
2023-06-06T18:27:13.947Z,101316.84
2023-06-06T18:30:00.786Z,101314.69
2023-06-06T18:32:48.950Z,101317.13
2023-06-06T18:35:35.937Z,101307.78
2023-06-06T18:38:22.589Z,101317.38
2023-06-06T18:41:09.252Z,101329.41
2023-06-06T18:43:56.151Z,101328.38
2023-06-06T18:46:42.784Z,101326.59
2023-06-06T18:49:31.041Z,101335.03
2023-06-06T18:52:17.805Z,101329.44
2023-06-06T18:55:05.126Z,101331.94
2023-06-06T18:57:51.850Z,101338.09
2023-06-06T19:00:38.453Z,101336.47
2023-06-06T19:03:25.373Z,101338.25
2023-06-06T19:06:13.346Z,101344.09
2023-06-06T19:09:00.214Z,101345.19
2023-06-06T19:11:47.306Z,101343.56
2023-06-06T19:14:34.038Z,101344.53
2023-06-06T19:17:20.920Z,101351.88
2023-06-06T19:20:14.463Z,101357.94
2023-06-06T19:23:00.923Z,101357.63
2023-06-06T19:25:47.761Z,101369.50
2023-06-06T19:28:34.620Z,101361.41
2023-06-06T19:31:21.380Z,101375.66
2023-06-06T19:34:08.430Z,101377.38
2023-06-06T19:36:56.676Z,101366.69
2023-06-06T19:39:48.025Z,101377.91
2023-06-06T19:42:34.722Z,101377.00
2023-06-06T19:45:21.795Z,101379.16
2023-06-06T19:48:08.589Z,101388.31
2023-06-06T19:50:55.195Z,101387.00
2023-06-06T19:53:43.289Z,101395.75
2023-06-06T19:56:30.248Z,101392.16
2023-06-06T19:59:17.086Z,101396.59
2023-06-06T20:02:05.045Z,101400.84
2023-06-06T20:04:52.437Z,101396.09
2023-06-06T20:07:39.484Z,101400.91
2023-06-06T20:10:27.600Z,101399.28
2023-06-06T20:13:14.377Z,101410.16
2023-06-06T20:16:01.214Z,101396.00
2023-06-06T20:18:47.736Z,101398.03
2023-06-06T20:21:34.428Z,101399.41
2023-06-06T20:24:21.507Z,101400.25
2023-06-06T20:27:16.431Z,101402.28
2023-06-06T20:30:04.797Z,101402.28
2023-06-06T20:32:52.234Z,101405.19
2023-06-06T20:35:38.934Z,101410.00
2023-06-06T20:38:26.014Z,101413.81
2023-06-06T20:41:13.225Z,101410.50
2023-06-06T20:44:01.328Z,101417.13
2023-06-06T20:46:48.245Z,101420.13
2023-06-06T20:49:35.327Z,101423.16
2023-06-06T20:52:22.104Z,101411.63
2023-06-06T20:55:10.979Z,101415.41
2023-06-06T20:57:58.451Z,101426.19
2023-06-06T21:00:46.662Z,101423.34
2023-06-06T21:03:33.768Z,101420.94
2023-06-06T21:06:20.856Z,101424.97
2023-06-06T21:09:08.302Z,101431.22
2023-06-06T21:11:57.170Z,101421.44
2023-06-06T21:14:45.189Z,101423.44
2023-06-06T21:17:34.278Z,101420.94
2023-06-06T21:20:21.186Z,101422.38
2023-06-06T21:23:09.429Z,101424.34
2023-06-06T21:25:57.808Z,101424.69
2023-06-06T21:28:44.920Z,101419.31
2023-06-06T21:31:31.557Z,101419.97
2023-06-06T21:34:20.189Z,101422.09
2023-06-06T21:37:06.920Z,101422.72
2023-06-06T21:39:53.512Z,101419.78
2023-06-06T21:42:40.413Z,101426.03
2023-06-06T21:45:26.983Z,101425.66
2023-06-06T21:48:13.655Z,101424.50
2023-06-06T21:51:02.344Z,101424.22
2023-06-06T21:53:49.043Z,101417.41
2023-06-06T21:56:35.795Z,101427.09
2023-06-06T21:59:25.680Z,101428.72
2023-06-06T22:04:59.629Z,101439.41
2023-06-06T22:07:47.675Z,101427.41
2023-06-06T22:10:34.540Z,101436.13
2023-06-06T22:13:23.141Z,101430.97
2023-06-06T22:16:09.945Z,101435.94
2023-06-06T22:18:58.720Z,101440.94
2023-06-06T22:21:45.644Z,101437.84
2023-06-06T22:24:33.946Z,101429.22
2023-06-06T22:27:20.748Z,101431.06
2023-06-06T22:30:08.908Z,101431.41
2023-06-06T22:32:55.467Z,101425.00
2023-06-06T22:35:42.167Z,101424.59
2023-06-06T22:38:28.533Z,101418.44
2023-06-06T22:41:16.934Z,101421.56
2023-06-06T22:44:03.738Z,101421.94
2023-06-06T22:46:50.424Z,101414.94
2023-06-06T22:49:37.268Z,101413.19
2023-06-06T22:52:23.877Z,101417.25
2023-06-06T22:55:11.795Z,101414.16
2023-06-06T22:58:00.098Z,101413.38
2023-06-06T23:00:46.977Z,101411.75
2023-06-06T23:03:35.429Z,101389.38
2023-06-06T23:06:22.008Z,101413.09
2023-06-06T23:09:09.381Z,101414.56
2023-06-06T23:11:55.875Z,101408.47
2023-06-06T23:14:44.156Z,101411.16
2023-06-06T23:17:32.419Z,101401.16
2023-06-06T23:20:19.427Z,101406.81
2023-06-06T23:23:05.892Z,101402.69
2023-06-06T23:25:52.626Z,101396.53
2023-06-06T23:28:39.524Z,101393.44
2023-06-06T23:31:27.763Z,101383.81
2023-06-06T23:34:14.488Z,101390.75
2023-06-06T23:37:01.410Z,101391.97
2023-06-06T23:39:48.016Z,101386.50
2023-06-06T23:42:34.837Z,101381.91
2023-06-06T23:45:21.904Z,101383.75
2023-06-06T23:48:10.123Z,101378.53
2023-06-06T23:50:56.982Z,101389.63
2023-06-06T23:53:43.868Z,101389.63
2023-06-06T23:56:30.767Z,101379.16
2023-06-06T23:59:17.603Z,101378.81
